This is the latest recevied weather packets stored in our database for station/object IQ0OG-3. If no packets are shown the sender has not sent any weather packets the latest 10 day(s).
| Time | Temp. | Humidity | Pressure | Rain* | Wind** | Luminosity | Snow |
|---|---|---|---|---|---|---|---|
| 1778161210 | 16.67° C | 85% | 1011.7 hPa | 0 mm | - | - | - |
| 1778160009 | 17.78° C | 83% | 1011.7 hPa | 0 mm | - | - | - |
| 1778157610 | 17.78° C | 79% | 1011.8 hPa | 0 mm | - | - | - |
| 1778151009 | 17.22° C | 82% | 1012.4 hPa | 0 mm | - | - | - |
| 1778137209 | 15° C | 85% | 1012.4 hPa | 0 mm | - | - | - |
| 1778134209 | 17.22° C | 77% | 1011.5 hPa | 0 mm | - | - | - |
| 1778125809 | 13.33° C | 84% | 1011.1 hPa | 0 mm | - | - | - |
| 1778125208 | 13.89° C | 84% | 1011.1 hPa | 0 mm | - | - | - |
| 1778122209 | 13.33° C | 86% | 1011.2 hPa | 0 mm | - | - | - |
| 1778113208 | 13.33° C | 91% | 1011.8 hPa | 0 mm | - | - | - |
| 1778110808 | 13.33° C | 93% | 1011.8 hPa | 0 mm | - | - | - |
| 1778110208 | 13.33° C | 93% | 1011.8 hPa | 0 mm | - | - | - |
| 1778104208 | 13.89° C | 89% | 1011.4 hPa | 0 mm | - | - | - |
| 1778096408 | 14.44° C | 88% | 1012.1 hPa | 0.25 mm | - | - | - |
| 1778092208 | 14.44° C | 94% | 1011.4 hPa | 0 mm | - | - | - |
| 1778086207 | 14.44° C | 96% | 1010.6 hPa | 2.03 mm | - | - | - |
| 1778077807 | 15.56° C | 91% | 1011.3 hPa | 0 mm | - | - | - |
| 1778077207 | 15.56° C | 87% | 1011.3 hPa | 0 mm | - | - | - |
| 1778067007 | 17.22° C | 86% | 1011.6 hPa | 0.25 mm | - | - | - |
| 1778063407 | 17.22° C | 85% | 1011.6 hPa | 0 mm | - | - | - |
| 1778059206 | 17.78° C | 84% | 1011.5 hPa | 0 mm | - | - | - |
| 1778056806 | 17.78° C | 82% | 1010.7 hPa | 0 mm | - | - | - |
| 1778056206 | 17.78° C | 83% | 1010.5 hPa | 0 mm | - | - | - |
| 1778053806 | 17.22° C | 84% | 1010.2 hPa | 0 mm | - | - | - |
| 1778053206 | 17.78° C | 83% | 1010.4 hPa | 0 mm | - | - | - |
* Rain latest hour (hover to see other rain measurements)
** Current wind speed in m/s (hover to see current wind gust speed)